createdAt,value
2022-09-25T00:01:52.741Z,2.0
2022-09-25T00:06:57.891Z,2.0
2022-09-25T00:12:04.101Z,2.0
2022-09-25T00:17:10.361Z,2.0
2022-09-25T00:22:16.518Z,2.0
2022-09-25T00:27:21.753Z,2.0
2022-09-25T00:32:27.959Z,2.0
2022-09-25T00:37:34.172Z,2.0
2022-09-25T00:42:40.381Z,2.0
2022-09-25T00:47:46.590Z,2.0
2022-09-25T00:52:52.788Z,2.0
2022-09-25T00:57:59.001Z,2.0
2022-09-25T01:03:05.211Z,2.0
2022-09-25T01:08:11.418Z,2.0
2022-09-25T01:13:17.634Z,2.0
2022-09-25T01:18:23.834Z,2.0
2022-09-25T01:23:30.173Z,2.0
2022-09-25T01:28:36.247Z,2.0
2022-09-25T01:33:42.453Z,2.0
2022-09-25T01:38:48.661Z,2.0
2022-09-25T01:43:54.871Z,2.0
2022-09-25T01:49:01.084Z,2.0
2022-09-25T01:54:07.284Z,2.0
2022-09-25T01:59:13.504Z,2.0
2022-09-25T02:04:19.706Z,3.0
2022-09-25T02:09:25.918Z,2.0
2022-09-25T02:14:31.151Z,2.0
2022-09-25T02:19:37.365Z,3.0
2022-09-25T02:24:42.593Z,3.0
2022-09-25T02:29:48.801Z,3.0
2022-09-25T02:34:54.049Z,3.0
2022-09-25T02:40:00.253Z,3.0
2022-09-25T02:45:05.489Z,3.0
2022-09-25T02:50:11.696Z,3.0
2022-09-25T02:55:17.901Z,3.0
2022-09-25T03:00:24.106Z,3.0
2022-09-25T03:05:30.314Z,3.0
2022-09-25T03:10:36.530Z,3.0
2022-09-25T03:15:42.733Z,3.0
2022-09-25T03:20:48.949Z,3.0
2022-09-25T03:25:55.151Z,3.0
2022-09-25T03:31:01.518Z,3.0
2022-09-25T03:36:07.568Z,3.0
2022-09-25T03:41:13.775Z,3.0
2022-09-25T03:46:20.064Z,3.0
2022-09-25T03:51:26.186Z,3.0
2022-09-25T03:56:32.394Z,3.0
2022-09-25T04:01:38.699Z,3.0
2022-09-25T04:06:44.819Z,3.0
2022-09-25T04:11:51.024Z,3.0
2022-09-25T04:16:57.236Z,3.0
2022-09-25T04:22:03.440Z,3.0
2022-09-25T04:27:09.646Z,3.0
2022-09-25T04:32:14.882Z,4.0
2022-09-25T04:37:21.090Z,4.0
2022-09-25T04:42:26.345Z,4.0
2022-09-25T04:47:32.528Z,5.0
2022-09-25T04:52:38.738Z,5.0
2022-09-25T04:57:58.374Z,5.0
2022-09-25T05:02:51.309Z,5.0
2022-09-25T05:07:57.365Z,5.0
2022-09-25T05:13:03.574Z,4.0
2022-09-25T05:18:09.781Z,5.0
2022-09-25T05:23:15.992Z,5.0
2022-09-25T05:28:22.224Z,5.0
2022-09-25T05:33:28.403Z,5.0
2022-09-25T05:38:34.615Z,5.0
2022-09-25T05:43:40.824Z,5.0
2022-09-25T05:48:47.030Z,5.0
2022-09-25T05:53:53.238Z,5.0
2022-09-25T05:58:59.444Z,5.0
2022-09-25T06:04:05.678Z,6.0
2022-09-25T06:09:11.863Z,6.0
2022-09-25T06:14:18.094Z,5.0
2022-09-25T06:19:24.286Z,5.0
2022-09-25T06:24:30.484Z,5.0
2022-09-25T06:29:35.719Z,5.0
2022-09-25T06:34:41.929Z,5.0
2022-09-25T06:39:47.166Z,5.0
2022-09-25T06:44:53.373Z,5.0
2022-09-25T06:49:59.580Z,5.0
2022-09-25T06:55:05.786Z,5.0
2022-09-25T07:00:11.992Z,4.0
2022-09-25T07:05:18.208Z,4.0
2022-09-25T07:10:24.454Z,4.0
2022-09-25T07:15:30.620Z,4.0
2022-09-25T07:20:36.848Z,4.0
2022-09-25T07:25:43.044Z,4.0
2022-09-25T07:30:49.272Z,4.0
2022-09-25T07:35:55.455Z,3.0
2022-09-25T07:41:01.667Z,3.0
2022-09-25T07:46:07.963Z,3.0
2022-09-25T07:51:14.086Z,3.0
2022-09-25T07:56:20.327Z,3.0
2022-09-25T08:01:26.549Z,3.0
2022-09-25T08:06:32.723Z,3.0
2022-09-25T08:11:38.934Z,3.0
2022-09-25T08:16:45.149Z,3.0
2022-09-25T08:21:51.365Z,3.0
2022-09-25T08:26:56.609Z,2.0
2022-09-25T08:32:02.815Z,3.0
2022-09-25T08:37:09.026Z,3.0
2022-09-25T08:42:14.259Z,3.0
2022-09-25T08:47:20.473Z,2.0
2022-09-25T08:52:26.684Z,2.5
2022-09-25T08:57:32.884Z,2.0
2022-09-25T09:02:39.130Z,2.0
2022-09-25T09:07:45.304Z,2.0
2022-09-25T09:12:51.511Z,2.0
2022-09-25T09:17:57.721Z,1.0
2022-09-25T09:23:03.926Z,1.0
2022-09-25T09:28:10.133Z,1.0
2022-09-25T09:33:16.345Z,1.0
2022-09-25T09:38:22.547Z,1.0
2022-09-25T09:43:28.759Z,1.0
2022-09-25T09:48:34.965Z,1.0
2022-09-25T09:53:41.174Z,1.0
2022-09-25T09:58:47.378Z,1.0
2022-09-25T10:03:53.587Z,1.0
2022-09-25T10:08:59.797Z,1.0
2022-09-25T10:14:06.007Z,1.0
2022-09-25T10:19:12.215Z,1.0
2022-09-25T10:24:18.425Z,1.0
2022-09-25T10:29:23.658Z,1.0
2022-09-25T10:34:29.871Z,0.0
2022-09-25T10:39:44.126Z,0.0
2022-09-25T10:44:41.313Z,1.0
2022-09-25T10:49:47.516Z,0.0
2022-09-25T10:54:53.731Z,0.0
2022-09-25T10:59:59.933Z,0.0
2022-09-25T11:05:06.214Z,0.0
2022-09-25T11:10:12.416Z,0.5
2022-09-25T11:15:18.568Z,0.0
2022-09-25T11:20:24.770Z,0.0
2022-09-25T11:25:30.981Z,0.0
2022-09-25T11:30:37.219Z,1.0
2022-09-25T11:35:43.400Z,1.0
2022-09-25T11:40:49.643Z,1.0
2022-09-25T11:45:55.910Z,0.0
2022-09-25T11:51:02.030Z,1.0
2022-09-25T11:56:08.222Z,0.0
2022-09-25T12:01:14.468Z,0.5
2022-09-25T12:06:20.644Z,0.0
2022-09-25T12:11:27.060Z,1.0
2022-09-25T12:16:33.094Z,0.5
2022-09-25T12:21:39.267Z,0.0
2022-09-25T12:26:44.525Z,1.0
2022-09-25T12:31:50.707Z,0.0
2022-09-25T12:36:56.927Z,1.0
2022-09-25T12:42:03.132Z,1.0
2022-09-25T12:47:09.345Z,0.0
2022-09-25T12:52:15.553Z,0.0
2022-09-25T12:57:21.753Z,0.0
2022-09-25T13:02:28.038Z,0.0
2022-09-25T13:07:34.171Z,0.0
2022-09-25T13:12:40.377Z,0.0
2022-09-25T13:17:46.589Z,1.0
2022-09-25T13:22:52.794Z,0.0
2022-09-25T13:27:59.011Z,0.0
2022-09-25T13:33:05.207Z,0.0
2022-09-25T13:38:11.430Z,0.0
2022-09-25T13:43:17.637Z,0.0
2022-09-25T13:48:23.832Z,0.0
2022-09-25T13:53:35.005Z,0.0
2022-09-25T13:58:36.247Z,0.0
2022-09-25T14:03:42.457Z,0.0
2022-09-25T14:08:48.670Z,0.0
2022-09-25T14:13:53.909Z,0.0
2022-09-25T14:19:00.116Z,0.0
2022-09-25T14:24:05.353Z,0.0
2022-09-25T14:29:11.625Z,0.0
2022-09-25T14:34:17.766Z,0.0
2022-09-25T14:39:23.978Z,0.0
2022-09-25T14:44:30.178Z,0.0
2022-09-25T14:49:36.389Z,0.0
2022-09-25T14:54:42.598Z,1.0
2022-09-25T14:59:48.799Z,0.0
2022-09-25T15:04:55.027Z,0.0
2022-09-25T15:10:01.219Z,0.0
2022-09-25T15:15:08.066Z,0.0
2022-09-25T15:20:13.638Z,0.0
2022-09-25T15:25:19.856Z,1.0
2022-09-25T15:30:26.055Z,0.5
2022-09-25T15:35:32.257Z,0.0
2022-09-25T15:40:38.512Z,0.0
2022-09-25T15:45:44.788Z,0.0
2022-09-25T15:50:50.883Z,0.0
2022-09-25T15:55:57.087Z,0.0
2022-09-25T16:01:03.343Z,0.0
2022-09-25T16:06:09.510Z,0.0
2022-09-25T16:11:14.743Z,0.0
2022-09-25T16:16:21.015Z,0.0
2022-09-25T16:21:27.154Z,0.0
2022-09-25T16:26:32.402Z,0.5
2022-09-25T16:31:38.657Z,1.0
2022-09-25T16:36:44.809Z,1.0
2022-09-25T16:41:51.023Z,1.0
2022-09-25T16:46:57.224Z,1.0
2022-09-25T16:52:03.429Z,1.0
2022-09-25T16:57:09.643Z,1.0
2022-09-25T17:02:16.001Z,1.0
2022-09-25T17:07:22.062Z,1.0
2022-09-25T17:12:27.286Z,1.0
2022-09-25T17:17:33.498Z,1.0
2022-09-25T17:22:39.702Z,1.0
2022-09-25T17:27:45.908Z,1.0
2022-09-25T17:32:52.121Z,1.0
2022-09-25T17:37:58.323Z,1.0
2022-09-25T17:43:04.538Z,1.0
2022-09-25T17:48:10.746Z,1.0
2022-09-25T17:53:16.947Z,1.0
2022-09-25T17:58:23.156Z,1.0
2022-09-25T18:03:29.367Z,1.0
2022-09-25T18:08:35.578Z,1.0
2022-09-25T18:13:41.815Z,2.0
2022-09-25T18:18:47.016Z,4.0
2022-09-25T18:23:52.263Z,4.0
2022-09-25T18:28:58.478Z,4.0
2022-09-25T18:34:04.691Z,5.0
2022-09-25T18:39:13.772Z,4.0
2022-09-25T18:44:17.112Z,3.0
2022-09-25T18:49:23.324Z,3.0
2022-09-25T18:54:29.536Z,3.0
2022-09-25T18:59:35.746Z,3.0
2022-09-25T19:04:41.957Z,4.0
2022-09-25T19:09:48.167Z,5.0
2022-09-25T19:14:54.382Z,4.0
2022-09-25T19:20:00.578Z,4.0
2022-09-25T19:25:06.789Z,4.0
2022-09-25T19:30:12.997Z,4.0
2022-09-25T19:35:19.205Z,4.0
2022-09-25T19:40:25.505Z,4.0
2022-09-25T19:45:31.623Z,5.0
2022-09-25T19:50:37.832Z,4.0
2022-09-25T19:55:44.037Z,5.0
2022-09-25T20:00:50.249Z,9.0
2022-09-25T20:05:56.456Z,10.0
2022-09-25T20:11:01.694Z,10.0
2022-09-25T20:16:08.547Z,8.0
2022-09-25T20:21:14.113Z,5.0
2022-09-25T20:26:20.313Z,4.0
2022-09-25T20:31:25.661Z,5.0
2022-09-25T20:36:31.759Z,6.0
2022-09-25T20:41:37.967Z,5.0
2022-09-25T20:46:44.175Z,4.0
2022-09-25T20:51:50.394Z,4.0
2022-09-25T21:02:02.971Z,4.0
2022-09-25T21:07:11.950Z,4.0
2022-09-25T21:12:15.216Z,4.0
2022-09-25T21:17:21.424Z,4.0
2022-09-25T21:22:27.634Z,4.0
2022-09-25T21:27:33.841Z,5.0
2022-09-25T21:32:40.052Z,5.0
2022-09-25T21:37:46.255Z,5.0
2022-09-25T21:42:52.465Z,5.0
2022-09-25T21:47:58.671Z,5.0
2022-09-25T21:53:04.883Z,5.0
2022-09-25T21:58:11.089Z,5.0
2022-09-25T22:03:17.375Z,5.0
2022-09-25T22:08:23.503Z,5.5
2022-09-25T22:13:29.710Z,5.0
2022-09-25T22:18:35.917Z,5.5
2022-09-25T22:23:41.157Z,5.0
2022-09-25T22:28:47.361Z,6.0
2022-09-25T22:33:53.574Z,6.0
2022-09-25T22:38:58.805Z,5.0
2022-09-25T22:44:05.013Z,5.0
2022-09-25T22:49:11.289Z,5.0
2022-09-25T22:54:17.429Z,5.0
2022-09-25T22:59:23.638Z,5.0
2022-09-25T23:04:29.845Z,5.0
2022-09-25T23:09:36.049Z,5.0
2022-09-25T23:14:42.259Z,5.0
2022-09-25T23:19:48.474Z,5.0
2022-09-25T23:24:54.681Z,5.0
2022-09-25T23:30:00.885Z,5.0
2022-09-25T23:35:07.105Z,5.0
2022-09-25T23:40:15.696Z,5.0
2022-09-25T23:45:19.524Z,5.0
2022-09-25T23:50:25.720Z,5.0
2022-09-25T23:55:31.920Z,5.0
